sensor_id;sensor_type;location;lat;lon;timestamp;pressure;altitude;pressure_sealevel;temperature;humidity
79150;BME280;68563;45.644;13.782;2023-04-28T00:00:25;101405.50;;;14.17;39.76
79150;BME280;68563;45.644;13.782;2023-04-28T00:02:51;101400.44;;;14.05;39.49
79150;BME280;68563;45.644;13.782;2023-04-28T00:05:16;101394.44;;;14.03;39.88
79150;BME280;68563;45.644;13.782;2023-04-28T00:07:42;101398.84;;;13.98;39.49
79150;BME280;68563;45.644;13.782;2023-04-28T00:10:08;101393.69;;;13.95;39.21
79150;BME280;68563;45.644;13.782;2023-04-28T00:12:33;101398.13;;;13.86;39.31
79150;BME280;68563;45.644;13.782;2023-04-28T00:14:59;101392.03;;;13.91;39.29
79150;BME280;68563;45.644;13.782;2023-04-28T00:17:25;101385.19;;;13.83;39.54
79150;BME280;68563;45.644;13.782;2023-04-28T00:19:50;101392.16;;;13.81;39.71
79150;BME280;68563;45.644;13.782;2023-04-28T00:22:17;101388.69;;;13.79;40.15
79150;BME280;68563;45.644;13.782;2023-04-28T00:24:43;101387.69;;;13.88;40.02
79150;BME280;68563;45.644;13.782;2023-04-28T00:27:08;101383.47;;;13.82;40.00
79150;BME280;68563;45.644;13.782;2023-04-28T00:29:34;101372.16;;;13.82;39.43
79150;BME280;68563;45.644;13.782;2023-04-28T00:32:01;101369.63;;;13.77;39.47
79150;BME280;68563;45.644;13.782;2023-04-28T00:34:26;101369.69;;;13.74;39.72
79150;BME280;68563;45.644;13.782;2023-04-28T00:36:52;101380.03;;;13.79;39.84
79150;BME280;68563;45.644;13.782;2023-04-28T00:39:17;101373.06;;;13.79;39.74
79150;BME280;68563;45.644;13.782;2023-04-28T00:41:42;101365.34;;;13.76;39.92
79150;BME280;68563;45.644;13.782;2023-04-28T00:44:08;101369.72;;;13.72;39.77
79150;BME280;68563;45.644;13.782;2023-04-28T00:46:33;101376.63;;;13.75;40.21
79150;BME280;68563;45.644;13.782;2023-04-28T00:48:59;101379.13;;;13.81;40.20
79150;BME280;68563;45.644;13.782;2023-04-28T00:51:24;101373.03;;;13.84;40.47
79150;BME280;68563;45.644;13.782;2023-04-28T00:53:51;101371.25;;;13.84;40.16
79150;BME280;68563;45.644;13.782;2023-04-28T00:56:17;101366.06;;;13.84;40.38
79150;BME280;68563;45.644;13.782;2023-04-28T00:58:43;101361.88;;;13.74;40.01
79150;BME280;68563;45.644;13.782;2023-04-28T01:01:09;101354.06;;;13.74;39.64
79150;BME280;68563;45.644;13.782;2023-04-28T01:03:37;101360.13;;;13.76;39.79
79150;BME280;68563;45.644;13.782;2023-04-28T01:06:04;101354.91;;;13.75;39.78
79150;BME280;68563;45.644;13.782;2023-04-28T01:08:31;101357.53;;;13.76;39.98
79150;BME280;68563;45.644;13.782;2023-04-28T01:10:57;101347.00;;;13.82;40.09
79150;BME280;68563;45.644;13.782;2023-04-28T01:13:22;101354.94;;;13.73;39.68
79150;BME280;68563;45.644;13.782;2023-04-28T01:15:48;101349.72;;;13.75;40.22
79150;BME280;68563;45.644;13.782;2023-04-28T01:18:15;101353.25;;;13.70;39.87
79150;BME280;68563;45.644;13.782;2023-04-28T01:20:40;101354.09;;;13.71;40.23
79150;BME280;68563;45.644;13.782;2023-04-28T01:23:13;101355.81;;;13.75;40.67
79150;BME280;68563;45.644;13.782;2023-04-28T01:25:39;101357.53;;;13.76;40.14
79150;BME280;68563;45.644;13.782;2023-04-28T01:28:05;101349.69;;;13.78;40.20
79150;BME280;68563;45.644;13.782;2023-04-28T01:30:30;101357.50;;;13.78;40.04
79150;BME280;68563;45.644;13.782;2023-04-28T01:32:56;101364.41;;;13.77;39.58
79150;BME280;68563;45.644;13.782;2023-04-28T01:35:21;101357.63;;;13.70;39.85
79150;BME280;68563;45.644;13.782;2023-04-28T01:37:47;101361.91;;;13.72;39.91
79150;BME280;68563;45.644;13.782;2023-04-28T01:40:12;101364.41;;;13.77;40.14
79150;BME280;68563;45.644;13.782;2023-04-28T01:42:38;101361.09;;;13.69;39.57
79150;BME280;68563;45.644;13.782;2023-04-28T01:45:03;101359.47;;;13.62;39.87
79150;BME280;68563;45.644;13.782;2023-04-28T01:47:30;101375.78;;;13.73;40.11
79150;BME280;68563;45.644;13.782;2023-04-28T01:49:55;101370.47;;;13.79;40.04
79150;BME280;68563;45.644;13.782;2023-04-28T01:52:21;101360.97;;;13.77;39.71
79150;BME280;68563;45.644;13.782;2023-04-28T01:54:48;101365.38;;;13.73;39.46
79150;BME280;68563;45.644;13.782;2023-04-28T01:57:14;101374.09;;;13.70;39.75
79150;BME280;68563;45.644;13.782;2023-04-28T01:59:39;101371.50;;;13.69;39.59
79150;BME280;68563;45.644;13.782;2023-04-28T02:02:05;101366.34;;;13.66;39.73
79150;BME280;68563;45.644;13.782;2023-04-28T02:04:30;101368.91;;;13.67;40.58
79150;BME280;68563;45.644;13.782;2023-04-28T02:06:56;101368.00;;;13.71;40.49
79150;BME280;68563;45.644;13.782;2023-04-28T02:09:21;101373.22;;;13.71;40.26
79150;BME280;68563;45.644;13.782;2023-04-28T02:11:47;101381.03;;;13.70;40.33
79150;BME280;68563;45.644;13.782;2023-04-28T02:14:12;101360.31;;;13.62;40.40
79150;BME280;68563;45.644;13.782;2023-04-28T02:16:38;101378.34;;;13.76;40.46
79150;BME280;68563;45.644;13.782;2023-04-28T02:19:03;101370.59;;;13.71;40.36
79150;BME280;68563;45.644;13.782;2023-04-28T02:21:28;101367.94;;;13.76;40.14
79150;BME280;68563;45.644;13.782;2023-04-28T02:23:55;101371.47;;;13.70;40.26
79150;BME280;68563;45.644;13.782;2023-04-28T02:26:20;101372.38;;;13.68;40.20
79150;BME280;68563;45.644;13.782;2023-04-28T02:28:46;101374.13;;;13.67;40.22
79150;BME280;68563;45.644;13.782;2023-04-28T02:31:13;101362.13;;;13.57;40.01
79150;BME280;68563;45.644;13.782;2023-04-28T02:33:39;101357.69;;;13.64;39.89
79150;BME280;68563;45.644;13.782;2023-04-28T02:36:06;101352.59;;;13.56;40.36
79150;BME280;68563;45.644;13.782;2023-04-28T02:38:32;101357.06;;;13.46;40.43
79150;BME280;68563;45.644;13.782;2023-04-28T02:40:59;101357.03;;;13.48;40.84
79150;BME280;68563;45.644;13.782;2023-04-28T02:43:25;101357.94;;;13.48;41.38
79150;BME280;68563;45.644;13.782;2023-04-28T02:45:51;101355.22;;;13.53;40.97
79150;BME280;68563;45.644;13.782;2023-04-28T02:48:17;101347.44;;;13.53;41.28
79150;BME280;68563;45.644;13.782;2023-04-28T02:50:42;101354.22;;;13.63;41.50
79150;BME280;68563;45.644;13.782;2023-04-28T02:53:08;101361.19;;;13.61;41.72
79150;BME280;68563;45.644;13.782;2023-04-28T02:55:33;101362.94;;;13.61;41.83
79150;BME280;68563;45.644;13.782;2023-04-28T02:57:58;101360.34;;;13.61;42.03
79150;BME280;68563;45.644;13.782;2023-04-28T03:00:24;101358.53;;;13.66;42.09
79150;BME280;68563;45.644;13.782;2023-04-28T03:02:49;101361.09;;;13.69;41.94
79150;BME280;68563;45.644;13.782;2023-04-28T03:05:14;101361.19;;;13.63;42.04
79150;BME280;68563;45.644;13.782;2023-04-28T03:07:40;101358.50;;;13.69;42.13
79150;BME280;68563;45.644;13.782;2023-04-28T03:10:06;101352.59;;;13.56;41.83
79150;BME280;68563;45.644;13.782;2023-04-28T03:12:31;101364.69;;;13.59;42.29
79150;BME280;68563;45.644;13.782;2023-04-28T03:14:57;101366.44;;;13.60;42.49
79150;BME280;68563;45.644;13.782;2023-04-28T03:17:22;101366.44;;;13.60;42.52
79150;BME280;68563;45.644;13.782;2023-04-28T03:19:47;101345.63;;;13.56;42.78
79150;BME280;68563;45.644;13.782;2023-04-28T03:22:13;101362.16;;;13.55;42.67
79150;BME280;68563;45.644;13.782;2023-04-28T03:24:38;101362.06;;;13.60;42.74
79150;BME280;68563;45.644;13.782;2023-04-28T03:27:03;101365.66;;;13.51;43.42
79150;BME280;68563;45.644;13.782;2023-04-28T03:29:30;101364.72;;;13.57;43.16
79150;BME280;68563;45.644;13.782;2023-04-28T03:31:55;101359.56;;;13.55;43.24
79150;BME280;68563;45.644;13.782;2023-04-28T03:34:21;101343.06;;;13.55;43.34
79150;BME280;68563;45.644;13.782;2023-04-28T03:36:46;101346.56;;;13.55;43.46
79150;BME280;68563;45.644;13.782;2023-04-28T03:39:12;101343.03;;;13.56;43.39
79150;BME280;68563;45.644;13.782;2023-04-28T03:41:37;101339.56;;;13.59;43.04
79150;BME280;68563;45.644;13.782;2023-04-28T03:44:03;101346.75;;;13.40;43.33
79150;BME280;68563;45.644;13.782;2023-04-28T03:46:28;101334.59;;;13.40;42.86
79150;BME280;68563;45.644;13.782;2023-04-28T03:48:54;101338.94;;;13.40;42.99
79150;BME280;68563;45.644;13.782;2023-04-28T03:51:20;101338.91;;;13.42;43.16
79150;BME280;68563;45.644;13.782;2023-04-28T03:53:46;101342.41;;;13.42;42.63
79150;BME280;68563;45.644;13.782;2023-04-28T03:56:11;101338.09;;;13.36;42.37
79150;BME280;68563;45.644;13.782;2023-04-28T03:58:37;101332.03;;;13.36;42.39
79150;BME280;68563;45.644;13.782;2023-04-28T04:01:02;101333.75;;;13.40;42.08
79150;BME280;68563;45.644;13.782;2023-04-28T04:03:29;101325.09;;;13.38;41.81
79150;BME280;68563;45.644;13.782;2023-04-28T04:05:55;101331.09;;;13.43;41.91
79150;BME280;68563;45.644;13.782;2023-04-28T04:08:20;101332.78;;;13.47;41.67
79150;BME280;68563;45.644;13.782;2023-04-28T04:10:46;101334.47;;;13.50;41.63
79150;BME280;68563;45.644;13.782;2023-04-28T04:13:11;101318.09;;;13.45;41.74
79150;BME280;68563;45.644;13.782;2023-04-28T04:15:36;101326.59;;;13.54;41.39
79150;BME280;68563;45.644;13.782;2023-04-28T04:18:02;101324.09;;;13.48;41.38
79150;BME280;68563;45.644;13.782;2023-04-28T04:20:27;101331.91;;;13.48;41.03
79150;BME280;68563;45.644;13.782;2023-04-28T04:22:53;101328.38;;;13.52;41.23
79150;BME280;68563;45.644;13.782;2023-04-28T04:25:18;101320.69;;;13.45;41.20
79150;BME280;68563;45.644;13.782;2023-04-28T04:27:43;101326.81;;;13.39;41.22
79150;BME280;68563;45.644;13.782;2023-04-28T04:30:09;101319.81;;;13.44;41.46
79150;BME280;68563;45.644;13.782;2023-04-28T04:32:34;101336.09;;;13.57;41.57
79150;BME280;68563;45.644;13.782;2023-04-28T04:35:00;101319.63;;;13.56;41.71
79150;BME280;68563;45.644;13.782;2023-04-28T04:37:25;101332.56;;;13.63;42.02
79150;BME280;68563;45.644;13.782;2023-04-28T04:39:51;101331.66;;;13.64;42.64
79150;BME280;68563;45.644;13.782;2023-04-28T04:42:16;101344.53;;;13.73;43.09
79150;BME280;68563;45.644;13.782;2023-04-28T04:44:42;101357.53;;;13.76;43.27
79150;BME280;68563;45.644;13.782;2023-04-28T04:47:07;101347.16;;;13.73;43.43
79150;BME280;68563;45.644;13.782;2023-04-28T04:49:33;101362.63;;;13.82;43.57
79150;BME280;68563;45.644;13.782;2023-04-28T04:51:58;101361.81;;;13.79;43.77
79150;BME280;68563;45.644;13.782;2023-04-28T04:54:23;101368.66;;;13.86;43.66
79150;BME280;68563;45.644;13.782;2023-04-28T04:56:49;101374.69;;;13.90;43.47
79150;BME280;68563;45.644;13.782;2023-04-28T04:59:15;101371.22;;;13.87;43.51
79150;BME280;68563;45.644;13.782;2023-04-28T05:01:41;101381.59;;;13.91;43.61
79150;BME280;68563;45.644;13.782;2023-04-28T05:04:07;101385.91;;;13.93;43.42
79150;BME280;68563;45.644;13.782;2023-04-28T05:06:32;101386.69;;;13.98;43.71
79150;BME280;68563;45.644;13.782;2023-04-28T05:08:57;101392.78;;;13.97;43.59
79150;BME280;68563;45.644;13.782;2023-04-28T05:11:23;101393.66;;;13.98;43.71
79150;BME280;68563;45.644;13.782;2023-04-28T05:13:49;101390.97;;;14.01;43.67
79150;BME280;68563;45.644;13.782;2023-04-28T05:16:14;101378.06;;;13.95;43.54
79150;BME280;68563;45.644;13.782;2023-04-28T05:18:40;101385.75;;;14.02;43.20
79150;BME280;68563;45.644;13.782;2023-04-28T05:21:05;101382.28;;;14.02;43.44
79150;BME280;68563;45.644;13.782;2023-04-28T05:23:31;101387.44;;;14.07;43.13
79150;BME280;68563;45.644;13.782;2023-04-28T05:25:56;101373.44;;;14.12;43.05
79150;BME280;68563;45.644;13.782;2023-04-28T05:28:22;101356.88;;;14.16;43.01
79150;BME280;68563;45.644;13.782;2023-04-28T05:30:47;101366.34;;;14.22;42.96
79150;BME280;68563;45.644;13.782;2023-04-28T05:33:12;101367.16;;;14.26;43.02
79150;BME280;68563;45.644;13.782;2023-04-28T05:35:38;101361.03;;;14.28;42.67
79150;BME280;68563;45.644;13.782;2023-04-28T05:38:04;101366.13;;;14.34;42.67
79150;BME280;68563;45.644;13.782;2023-04-28T05:40:31;101369.53;;;14.36;42.60
79150;BME280;68563;45.644;13.782;2023-04-28T05:42:56;101366.06;;;14.38;42.29
79150;BME280;68563;45.644;13.782;2023-04-28T05:45:21;101363.44;;;14.39;42.30
79150;BME280;68563;45.644;13.782;2023-04-28T05:47:47;101356.38;;;14.46;42.71
79150;BME280;68563;45.644;13.782;2023-04-28T05:50:12;101358.94;;;14.47;42.64
79150;BME280;68563;45.644;13.782;2023-04-28T05:52:38;101363.16;;;14.55;42.58
79150;BME280;68563;45.644;13.782;2023-04-28T05:55:03;101366.59;;;14.57;42.71
79150;BME280;68563;45.644;13.782;2023-04-28T05:57:29;101368.25;;;14.61;42.43
79150;BME280;68563;45.644;13.782;2023-04-28T05:59:54;101370.69;;;14.73;42.39
79150;BME280;68563;45.644;13.782;2023-04-28T06:02:20;101367.81;;;14.86;42.20
79150;BME280;68563;45.644;13.782;2023-04-28T06:04:45;101375.50;;;14.93;41.73
79150;BME280;68563;45.644;13.782;2023-04-28T06:07:10;101377.16;;;14.97;41.48
79150;BME280;68563;45.644;13.782;2023-04-28T06:09:36;101386.69;;;15.00;41.14
79150;BME280;68563;45.644;13.782;2023-04-28T06:12:01;101390.91;;;15.06;41.16
79150;BME280;68563;45.644;13.782;2023-04-28T06:14:28;101394.25;;;15.12;41.24
79150;BME280;68563;45.644;13.782;2023-04-28T06:16:53;101389.69;;;15.22;41.16
79150;BME280;68563;45.644;13.782;2023-04-28T06:19:19;101389.44;;;15.36;40.88
79150;BME280;68563;45.644;13.782;2023-04-28T06:21:45;101393.50;;;15.48;40.90
79150;BME280;68563;45.644;13.782;2023-04-28T06:24:11;101400.94;;;15.65;40.70
79150;BME280;68563;45.644;13.782;2023-04-28T06:26:36;101391.88;;;15.82;40.68
79150;BME280;68563;45.644;13.782;2023-04-28T06:29:02;101393.34;;;15.95;40.14
79150;BME280;68563;45.644;13.782;2023-04-28T06:31:27;101393.91;;;16.08;40.14
79150;BME280;68563;45.644;13.782;2023-04-28T06:33:53;101395.28;;;16.23;40.27
79150;BME280;68563;45.644;13.782;2023-04-28T06:36:18;101387.22;;;16.32;40.48
79150;BME280;68563;45.644;13.782;2023-04-28T06:38:44;101392.97;;;16.45;40.57
79150;BME280;68563;45.644;13.782;2023-04-28T06:41:10;101388.28;;;16.58;40.64
79150;BME280;68563;45.644;13.782;2023-04-28T06:43:36;101381.97;;;16.67;40.65
79150;BME280;68563;45.644;13.782;2023-04-28T06:46:02;101388.50;;;16.83;40.32
79150;BME280;68563;45.644;13.782;2023-04-28T06:48:27;101393.41;;;16.96;40.00
79150;BME280;68563;45.644;13.782;2023-04-28T06:50:53;101385.38;;;17.03;39.86
79150;BME280;68563;45.644;13.782;2023-04-28T06:53:18;101381.81;;;17.04;39.77
79150;BME280;68563;45.644;13.782;2023-04-28T06:55:44;101379.19;;;17.06;40.07
79150;BME280;68563;45.644;13.782;2023-04-28T06:58:09;101380.13;;;17.03;40.43
79150;BME280;68563;45.644;13.782;2023-04-28T07:00:37;101365.59;;;16.93;40.44
79150;BME280;68563;45.644;13.782;2023-04-28T07:03:03;101381.06;;;17.01;41.03
79150;BME280;68563;45.644;13.782;2023-04-28T07:05:28;101382.88;;;16.99;41.22
79150;BME280;68563;45.644;13.782;2023-04-28T07:07:53;101388.19;;;16.96;42.64
79150;BME280;68563;45.644;13.782;2023-04-28T07:10:19;101390.66;;;17.00;41.92
79150;BME280;68563;45.644;13.782;2023-04-28T07:12:44;101376.88;;;16.95;41.30
79150;BME280;68563;45.644;13.782;2023-04-28T07:15:10;101387.88;;;17.06;41.42
79150;BME280;68563;45.644;13.782;2023-04-28T07:17:36;101387.56;;;17.17;41.21
79150;BME280;68563;45.644;13.782;2023-04-28T07:20:02;101384.72;;;17.25;41.67
79150;BME280;68563;45.644;13.782;2023-04-28T07:22:28;101387.19;;;17.31;41.49
79150;BME280;68563;45.644;13.782;2023-04-28T07:24:54;101384.47;;;17.34;41.57
79150;BME280;68563;45.644;13.782;2023-04-28T07:27:19;101380.13;;;17.33;41.47
79150;BME280;68563;45.644;13.782;2023-04-28T07:29:44;101385.16;;;17.41;41.21
79150;BME280;68563;45.644;13.782;2023-04-28T07:32:10;101367.00;;;17.35;41.83
79150;BME280;68563;45.644;13.782;2023-04-28T07:34:36;101384.19;;;17.44;41.73
79150;BME280;68563;45.644;13.782;2023-04-28T07:37:02;101377.31;;;17.39;42.44
79150;BME280;68563;45.644;13.782;2023-04-28T07:39:30;101380.88;;;17.37;42.43
79150;BME280;68563;45.644;13.782;2023-04-28T07:41:55;101381.78;;;17.36;42.93
79150;BME280;68563;45.644;13.782;2023-04-28T07:44:22;101371.50;;;17.30;42.94
79150;BME280;68563;45.644;13.782;2023-04-28T07:46:48;101379.47;;;17.25;43.18
79150;BME280;68563;45.644;13.782;2023-04-28T07:49:13;101377.88;;;17.21;43.05
79150;BME280;68563;45.644;13.782;2023-04-28T07:51:38;101377.88;;;17.21;42.96
79150;BME280;68563;45.644;13.782;2023-04-28T07:54:04;101370.13;;;17.18;43.00
79150;BME280;68563;45.644;13.782;2023-04-28T07:56:29;101373.66;;;17.15;43.49
79150;BME280;68563;45.644;13.782;2023-04-28T07:58:55;101389.38;;;17.15;43.62
79150;BME280;68563;45.644;13.782;2023-04-28T08:01:21;101392.03;;;17.14;43.61
79150;BME280;68563;45.644;13.782;2023-04-28T08:03:46;101399.00;;;17.15;43.80
79150;BME280;68563;45.644;13.782;2023-04-28T08:06:12;101405.91;;;17.17;44.40
79150;BME280;68563;45.644;13.782;2023-04-28T08:08:37;101404.16;;;17.18;44.13
79150;BME280;68563;45.644;13.782;2023-04-28T08:11:03;101414.63;;;17.18;44.00
79150;BME280;68563;45.644;13.782;2023-04-28T08:13:29;101419.94;;;17.15;42.95
79150;BME280;68563;45.644;13.782;2023-04-28T08:15:55;101423.56;;;17.11;42.67
79150;BME280;68563;45.644;13.782;2023-04-28T08:18:21;101429.75;;;17.06;43.13
79150;BME280;68563;45.644;13.782;2023-04-28T08:20:47;101433.38;;;17.01;43.83
79150;BME280;68563;45.644;13.782;2023-04-28T08:23:12;101442.19;;;16.98;44.76
79150;BME280;68563;45.644;13.782;2023-04-28T08:25:37;101452.75;;;16.94;45.82
79150;BME280;68563;45.644;13.782;2023-04-28T08:28:03;101452.06;;;16.87;46.63
79150;BME280;68563;45.644;13.782;2023-04-28T08:30:30;101459.13;;;16.83;46.70
79150;BME280;68563;45.644;13.782;2023-04-28T08:32:56;101467.13;;;16.77;46.76
79150;BME280;68563;45.644;13.782;2023-04-28T08:35:21;101468.97;;;16.73;46.76
79150;BME280;68563;45.644;13.782;2023-04-28T08:37:47;101455.31;;;16.62;47.25
79150;BME280;68563;45.644;13.782;2023-04-28T08:40:13;101473.81;;;16.54;47.51
79150;BME280;68563;45.644;13.782;2023-04-28T08:42:40;101470.41;;;16.51;47.57
79150;BME280;68563;45.644;13.782;2023-04-28T08:45:06;101476.53;;;16.50;47.73
79150;BME280;68563;45.644;13.782;2023-04-28T08:47:37;101474.84;;;16.47;48.03
79150;BME280;68563;45.644;13.782;2023-04-28T08:50:04;101471.50;;;16.42;47.64
79150;BME280;68563;45.644;13.782;2023-04-28T08:52:30;101483.75;;;16.40;47.65
79150;BME280;68563;45.644;13.782;2023-04-28T08:54:58;101475.13;;;16.36;47.19
79150;BME280;68563;45.644;13.782;2023-04-28T08:57:26;101475.16;;;16.35;47.34
79150;BME280;68563;45.644;13.782;2023-04-28T08:59:52;101478.63;;;16.35;47.30
79150;BME280;68563;45.644;13.782;2023-04-28T09:02:18;101474.38;;;16.31;46.83
79150;BME280;68563;45.644;13.782;2023-04-28T09:04:46;101476.09;;;16.32;46.31
79150;BME280;68563;45.644;13.782;2023-04-28T09:07:11;101469.22;;;16.28;45.02
79150;BME280;68563;45.644;13.782;2023-04-28T09:09:37;101466.63;;;16.26;44.83
79150;BME280;68563;45.644;13.782;2023-04-28T09:12:04;101474.47;;;16.26;44.50
79150;BME280;68563;45.644;13.782;2023-04-28T09:14:34;101470.94;;;16.29;43.41
79150;BME280;68563;45.644;13.782;2023-04-28T09:17:01;101462.19;;;16.30;42.64
79150;BME280;68563;45.644;13.782;2023-04-28T09:19:36;101464.75;;;16.32;42.15
79150;BME280;68563;45.644;13.782;2023-04-28T09:22:03;101461.31;;;16.31;41.26
79150;BME280;68563;45.644;13.782;2023-04-28T09:24:34;101446.63;;;16.25;41.01
79150;BME280;68563;45.644;13.782;2023-04-28T09:27:01;101461.31;;;16.31;40.11
79150;BME280;68563;45.644;13.782;2023-04-28T09:29:27;101452.56;;;16.32;40.45
79150;BME280;68563;45.644;13.782;2023-04-28T09:31:53;101448.25;;;16.31;39.34
79150;BME280;68563;45.644;13.782;2023-04-28T09:34:19;101450.81;;;16.33;38.47
79150;BME280;68563;45.644;13.782;2023-04-28T09:36:45;101452.56;;;16.32;37.25
79150;BME280;68563;45.644;13.782;2023-04-28T09:39:10;101443.06;;;16.28;38.36
79150;BME280;68563;45.644;13.782;2023-04-28T09:41:39;101450.91;;;16.30;39.50
79150;BME280;68563;45.644;13.782;2023-04-28T09:44:16;101451.75;;;16.30;39.68
79150;BME280;68563;45.644;13.782;2023-04-28T09:46:44;101441.25;;;16.32;38.92
79150;BME280;68563;45.644;13.782;2023-04-28T09:49:10;101449.97;;;16.32;38.10
79150;BME280;68563;45.644;13.782;2023-04-28T09:51:36;101442.97;;;16.33;38.86
79150;BME280;68563;45.644;13.782;2023-04-28T09:54:02;101440.41;;;16.31;39.64
79150;BME280;68563;45.644;13.782;2023-04-28T09:56:29;101439.47;;;16.34;39.07
79150;BME280;68563;45.644;13.782;2023-04-28T09:58:57;101426.69;;;16.21;38.70
79150;BME280;68563;45.644;13.782;2023-04-28T10:01:39;101446.50;;;16.30;39.00
79150;BME280;68563;45.644;13.782;2023-04-28T10:04:05;101442.19;;;16.29;40.39
79150;BME280;68563;45.644;13.782;2023-04-28T10:06:33;101448.28;;;16.28;40.75
79150;BME280;68563;45.644;13.782;2023-04-28T10:09:04;101435.38;;;16.22;40.40
79150;BME280;68563;45.644;13.782;2023-04-28T10:11:30;101445.69;;;16.28;40.01
79150;BME280;68563;45.644;13.782;2023-04-28T10:13:57;101431.03;;;16.21;39.90
79150;BME280;68563;45.644;13.782;2023-04-28T10:16:23;101430.94;;;16.27;40.20
79150;BME280;68563;45.644;13.782;2023-04-28T10:18:50;101426.50;;;16.29;41.35
79150;BME280;68563;45.644;13.782;2023-04-28T10:21:17;101416.91;;;16.30;41.95
79150;BME280;68563;45.644;13.782;2023-04-28T10:26:16;101411.72;;;16.28;42.14
79150;BME280;68563;45.644;13.782;2023-04-28T10:28:47;101395.19;;;16.27;42.96
79150;BME280;68563;45.644;13.782;2023-04-28T10:31:20;101391.63;;;16.30;43.21
79150;BME280;68563;45.644;13.782;2023-04-28T10:33:47;101383.84;;;16.29;43.78
79150;BME280;68563;45.644;13.782;2023-04-28T10:36:48;101375.13;;;16.28;42.96
79150;BME280;68563;45.644;13.782;2023-04-28T10:39:15;101376.94;;;16.26;43.00
79150;BME280;68563;45.644;13.782;2023-04-28T10:41:41;101381.28;;;16.25;43.23
79150;BME280;68563;45.644;13.782;2023-04-28T10:47:07;101387.34;;;16.27;43.81
79150;BME280;68563;45.644;13.782;2023-04-28T11:00:40;101363.75;;;16.31;44.67
79150;BME280;68563;45.644;13.782;2023-04-28T11:03:06;101383.50;;;16.41;44.12
79150;BME280;68563;45.644;13.782;2023-04-28T11:05:31;101366.00;;;16.45;44.16
79150;BME280;68563;45.644;13.782;2023-04-28T11:11:11;101363.16;;;16.52;43.94
79150;BME280;68563;45.644;13.782;2023-04-28T11:13:38;101355.31;;;16.54;43.73
79150;BME280;68563;45.644;13.782;2023-04-28T11:16:03;101351.69;;;16.58;44.07
79150;BME280;68563;45.644;13.782;2023-04-28T11:21:18;101364.53;;;16.67;44.00
79150;BME280;68563;45.644;13.782;2023-04-28T11:23:44;101367.91;;;16.71;43.61
79150;BME280;68563;45.644;13.782;2023-04-28T11:26:10;101361.75;;;16.73;43.87
79150;BME280;68563;45.644;13.782;2023-04-28T11:28:45;101359.78;;;16.82;43.47
79150;BME280;68563;45.644;13.782;2023-04-28T11:31:15;101350.88;;;16.87;43.22
79150;BME280;68563;45.644;13.782;2023-04-28T11:34:11;101353.34;;;16.94;43.58
79150;BME280;68563;45.644;13.782;2023-04-28T11:36:39;101346.19;;;17.00;43.29
79150;BME280;68563;45.644;13.782;2023-04-28T11:39:07;101350.41;;;17.04;42.98
79150;BME280;68563;45.644;13.782;2023-04-28T11:41:34;101348.63;;;17.06;42.61
79150;BME280;68563;45.644;13.782;2023-04-28T11:44:00;101342.38;;;17.12;42.53
79150;BME280;68563;45.644;13.782;2023-04-28T11:46:33;101334.47;;;17.14;42.40
79150;BME280;68563;45.644;13.782;2023-04-28T11:49:08;101337.91;;;17.16;42.56
79150;BME280;68563;45.644;13.782;2023-04-28T11:51:36;101336.09;;;17.18;42.57
79150;BME280;68563;45.644;13.782;2023-04-28T11:54:03;101331.66;;;17.20;42.72
79150;BME280;68563;45.644;13.782;2023-04-28T11:56:29;101324.63;;;17.22;42.04
79150;BME280;68563;45.644;13.782;2023-04-28T11:59:00;101324.69;;;17.20;42.02
79150;BME280;68563;45.644;13.782;2023-04-28T12:01:25;101314.97;;;17.24;42.04
79150;BME280;68563;45.644;13.782;2023-04-28T12:03:51;101313.34;;;17.20;41.96
79150;BME280;68563;45.644;13.782;2023-04-28T12:06:17;101313.28;;;17.21;42.21
79150;BME280;68563;45.644;13.782;2023-04-28T12:08:45;101302.78;;;17.23;42.83
79150;BME280;68563;45.644;13.782;2023-04-28T12:11:12;101299.28;;;17.24;43.00
79150;BME280;68563;45.644;13.782;2023-04-28T12:13:38;101294.81;;;17.26;43.13
79150;BME280;68563;45.644;13.782;2023-04-28T12:16:07;101286.88;;;17.29;42.92
79150;BME280;68563;45.644;13.782;2023-04-28T12:18:34;101290.41;;;17.28;42.72
79150;BME280;68563;45.644;13.782;2023-04-28T12:21:00;101290.31;;;17.31;40.92
79150;BME280;68563;45.644;13.782;2023-04-28T12:23:34;101285.22;;;17.27;40.90
79150;BME280;68563;45.644;13.782;2023-04-28T12:26:00;101281.72;;;17.26;40.42
79150;BME280;68563;45.644;13.782;2023-04-28T12:28:38;101272.22;;;17.23;40.72
79150;BME280;68563;45.644;13.782;2023-04-28T12:31:07;101274.00;;;17.21;41.24
79150;BME280;68563;45.644;13.782;2023-04-28T12:33:33;101276.88;;;17.14;41.12
79150;BME280;68563;45.644;13.782;2023-04-28T12:36:03;101281.13;;;17.18;41.17
79150;BME280;68563;45.644;13.782;2023-04-28T12:38:30;101275.91;;;17.18;40.12
79150;BME280;68563;45.644;13.782;2023-04-28T12:40:55;101274.00;;;17.21;39.37
79150;BME280;68563;45.644;13.782;2023-04-28T12:43:21;101272.34;;;17.20;39.20
79150;BME280;68563;45.644;13.782;2023-04-28T12:45:49;101269.59;;;17.23;38.75
79150;BME280;68563;45.644;13.782;2023-04-28T12:48:15;101273.88;;;17.26;38.18
79150;BME280;68563;45.644;13.782;2023-04-28T12:50:40;101270.47;;;17.24;36.76
79150;BME280;68563;45.644;13.782;2023-04-28T12:53:05;101280.88;;;17.26;36.38
79150;BME280;68563;45.644;13.782;2023-04-28T12:55:31;101286.00;;;17.29;36.21
79150;BME280;68563;45.644;13.782;2023-04-28T12:57:56;101281.72;;;17.28;35.95